This is the latest recevied weather packets stored in our database for station/object MM0ZFG-5. If no packets are shown the sender has not sent any weather packets the latest 10 day(s).
| Time | Temp. | Humidity | Pressure | Rain* | Wind** | Luminosity | Snow |
|---|---|---|---|---|---|---|---|
| 1778247363 | 14.44° C | 54% | 1013.5 hPa | 0 mm | - | - | - |
| 1778242144 | 13.89° C | 58% | 1013.2 hPa | 0.25 mm | - | - | - |
| 1778239084 | 12.22° C | 59% | 1012.8 hPa | 0 mm | - | - | - |
| 1778238003 | 12.78° C | 67% | 1012.8 hPa | 0 mm | - | - | - |
| 1778237103 | 11.67° C | 70% | 1012.8 hPa | 0 mm | - | - | - |
| 1778236585 | 11.67° C | 73% | 1012.8 hPa | 0 mm | - | - | - |
| 1778234965 | 10.56° C | 77% | 1012.5 hPa | 0 mm | - | - | - |
| 1778224684 | 8.89° C | 88% | 1010.9 hPa | 0 mm | - | - | - |
| 1778222705 | 8.33° C | 89% | 1010.8 hPa | 0 mm | - | - | - |
| 1778218563 | 7.78° C | 91% | 1010 hPa | 0 mm | - | - | - |
| 1778216044 | 7.78° C | 91% | 1009.5 hPa | 0 mm | - | - | - |
| 1778211363 | 7.78° C | 91% | 1009.1 hPa | 0 mm | - | - | - |
| 1778210824 | 7.78° C | 91% | 1009 hPa | 0 mm | - | - | - |
| 1778207763 | 7.78° C | 92% | 1008.6 hPa | 0 mm | - | - | - |
| 1778207224 | 8.33° C | 93% | 1008.9 hPa | 0 mm | - | - | - |
| 1778206704 | 7.78° C | 93% | 1008.8 hPa | 0 mm | - | - | - |
| 1778204703 | 8.33° C | 93% | 1008.6 hPa | 0 mm | - | - | - |
| 1778195884 | 8.33° C | 93% | 1008.2 hPa | 0.25 mm | - | - | - |
| 1778194804 | 8.33° C | 92% | 1008.2 hPa | 1.02 mm | - | - | - |
| 1778189763 | 8.89° C | 89% | 1007.9 hPa | 0 mm | - | - | - |
| 1778184545 | 8.89° C | 88% | 1007.7 hPa | 0 mm | - | - | - |
| 1778180405 | 9.44° C | 82% | 1007.3 hPa | 0 mm | - | - | - |
| 1778180043 | 9.44° C | 81% | 1007.3 hPa | 0 mm | - | - | - |
| 1778175364 | 11.67° C | 71% | 1007.5 hPa | 0 mm | - | - | - |
| 1778172843 | 10.56° C | 71% | 1007.4 hPa | 0 mm | - | - | - |
* Rain latest hour (hover to see other rain measurements)
** Current wind speed in m/s (hover to see current wind gust speed)